Time;durP1;ratioP1;P1;durP2;ratioP2;P2;SDS_P1;SDS_P2;PMS_P1;PMS_P2;Temp;Humidity;BMP_temperature;BMP_pressure;BME280_temperature;BME280_humidity;BME280_pressure;Samples;Min_cycle;Max_cycle;Signal;HPM_P1;HPM_P2
2022/10/13 00:01:26;;;;;;;25.33;15.00;;;11.20;99.90;;;;;;5008026;28;20046;-80
2022/10/13 00:03:52;;;;;;;21.50;13.93;;;11.20;99.90;;;;;;5026383;28;20134;-79
2022/10/13 00:06:20;;;;;;;19.48;13.07;;;11.20;99.90;;;;;;5001252;28;20049;-80
2022/10/13 00:08:46;;;;;;;22.45;13.40;;;11.20;99.90;;;;;;5025083;28;21021;-80
2022/10/13 00:11:17;;;;;;;21.13;12.30;;;11.20;99.90;;;;;;5018990;28;20050;-80
2022/10/13 00:13:44;;;;;;;20.80;12.95;;;11.20;99.90;;;;;;5017572;28;20136;-80
2022/10/13 00:16:13;;;;;;;21.30;13.95;;;11.20;99.90;;;;;;5002211;28;20057;-79
2022/10/13 00:18:39;;;;;;;24.60;14.15;;;11.20;99.90;;;;;;5025395;28;20426;-80
2022/10/13 00:21:10;;;;;;;18.67;13.10;;;11.20;99.90;;;;;;5009116;28;20045;-79
2022/10/13 00:23:37;;;;;;;25.42;13.93;;;11.20;99.90;;;;;;5008976;28;20053;-80
2022/10/13 00:26:05;;;;;;;21.73;13.98;;;11.20;99.90;;;;;;5001474;28;20112;-80
2022/10/13 00:28:30;;;;;;;23.70;13.80;;;11.20;99.90;;;;;;5008243;28;20108;-79
2022/10/13 00:30:56;;;;;;;22.60;14.73;;;11.20;99.90;;;;;;5001235;28;20490;-80
2022/10/13 00:33:22;;;;;;;22.45;14.48;;;11.20;99.90;;;;;;5001478;28;20054;-80
2022/10/13 00:35:49;;;;;;;24.50;14.50;;;11.20;99.90;;;;;;4985337;28;20042;-80
2022/10/13 00:38:19;;;;;;;23.58;14.05;;;11.20;99.90;;;;;;5009004;28;20049;-80
2022/10/13 00:40:51;;;;;;;20.17;14.27;;;11.20;99.90;;;;;;5009117;28;20398;-80
2022/10/13 00:43:18;;;;;;;20.45;13.93;;;11.20;99.90;;;;;;5024879;28;20450;-80
2022/10/13 00:45:44;;;;;;;20.23;13.43;;;11.20;99.90;;;;;;5001868;28;20132;-80
2022/10/13 00:48:10;;;;;;;23.15;13.23;;;11.20;99.90;;;;;;4985302;28;20061;-80
2022/10/13 00:50:40;;;;;;;21.50;14.02;;;11.20;99.90;;;;;;5001126;28;20077;-80
2022/10/13 00:53:08;;;;;;;23.35;13.10;;;11.20;99.90;;;;;;5008378;28;20049;-80
2022/10/13 00:55:37;;;;;;;21.08;13.38;;;11.20;99.90;;;;;;5034538;28;20075;-80
2022/10/13 00:58:06;;;;;;;26.48;14.52;;;11.20;99.90;;;;;;5016934;28;20121;-80
2022/10/13 01:00:33;;;;;;;22.70;13.70;;;11.20;99.90;;;;;;5017465;28;20038;-80
2022/10/13 01:03:00;;;;;;;25.70;13.40;;;11.20;99.90;;;;;;5009567;28;20509;-80
2022/10/13 01:05:26;;;;;;;16.25;11.18;;;11.20;99.90;;;;;;4986564;28;20057;-80
2022/10/13 01:07:53;;;;;;;20.05;12.80;;;11.20;99.90;;;;;;5004985;28;20495;-80
2022/10/13 01:10:44;;;;;;;17.83;11.60;;;11.20;99.90;;;;;;5006318;28;20048;-80
2022/10/13 01:13:42;;;;;;;16.95;10.38;;;11.20;99.90;;;;;;5021910;28;20045;-80
2022/10/13 01:16:29;;;;;;;18.73;12.05;;;11.20;99.90;;;;;;5037524;28;20129;-80
2022/10/13 01:19:30;;;;;;;19.95;11.55;;;11.20;99.90;;;;;;5020754;28;20438;-80
2022/10/13 01:22:17;;;;;;;25.27;13.05;;;11.20;99.90;;;;;;5029628;28;20128;-80
2022/10/13 01:24:47;;;;;;;18.70;12.07;;;11.20;99.90;;;;;;5012061;28;20395;-80
2022/10/13 01:27:34;;;;;;;18.13;11.50;;;11.20;99.90;;;;;;5020221;28;20044;-80
2022/10/13 01:30:08;;;;;;;22.52;11.27;;;11.20;99.90;;;;;;5038302;28;20042;-80
2022/10/13 01:32:40;;;;;;;15.13;10.35;;;11.20;99.90;;;;;;5004282;28;20795;-80
2022/10/13 01:35:10;;;;;;;19.83;12.20;;;11.20;99.90;;;;;;5021926;28;20061;-79
2022/10/13 01:38:09;;;;;;;16.38;11.05;;;11.30;99.90;;;;;;5005478;28;20042;-80
2022/10/13 01:40:44;;;;;;;21.58;13.32;;;11.30;99.90;;;;;;5026359;28;20049;-80
2022/10/13 01:43:20;;;;;;;19.83;12.93;;;11.30;99.90;;;;;;5029009;28;20048;-79
2022/10/13 01:45:59;;;;;;;17.63;13.38;;;11.30;99.90;;;;;;5027954;28;20056;-80
2022/10/13 01:48:27;;;;;;;20.58;13.52;;;11.20;99.90;;;;;;5011848;28;20133;-80
2022/10/13 01:50:54;;;;;;;23.00;13.93;;;11.30;99.90;;;;;;5020581;28;20111;-80
2022/10/13 01:53:21;;;;;;;18.63;11.27;;;11.30;99.90;;;;;;5020677;28;20064;-80
2022/10/13 01:55:58;;;;;;;20.75;13.43;;;11.30;99.90;;;;;;5020738;28;20049;-79
2022/10/13 01:58:28;;;;;;;23.30;13.25;;;11.30;99.90;;;;;;5020707;28;20049;-80
2022/10/13 02:01:12;;;;;;;26.73;14.90;;;11.30;99.90;;;;;;5028187;28;20053;-80
2022/10/13 02:03:56;;;;;;;23.17;14.05;;;11.30;99.90;;;;;;5027938;28;20048;-80
2022/10/13 02:06:31;;;;;;;21.27;13.20;;;11.30;99.90;;;;;;5011305;28;20045;-79
2022/10/13 02:09:05;;;;;;;21.98;14.27;;;11.30;99.90;;;;;;5026832;28;20041;-79
2022/10/13 02:11:31;;;;;;;23.70;15.15;;;11.30;99.90;;;;;;5012412;28;20077;-80
2022/10/13 02:14:13;;;;;;;21.38;13.93;;;11.20;99.90;;;;;;5020492;28;20139;-79
2022/10/13 02:16:42;;;;;;;21.25;14.55;;;11.20;99.90;;;;;;5025997;28;20042;-79
2022/10/13 02:19:11;;;;;;;18.23;13.13;;;11.20;99.90;;;;;;5027762;28;20053;-79
2022/10/13 02:21:37;;;;;;;21.25;13.68;;;11.20;99.90;;;;;;5026295;28;20081;-79
2022/10/13 02:24:04;;;;;;;23.05;14.40;;;11.20;99.90;;;;;;5002890;28;20084;-79
2022/10/13 02:26:31;;;;;;;21.83;13.40;;;11.20;99.90;;;;;;5002976;28;20111;-79
2022/10/13 02:28:58;;;;;;;20.33;13.00;;;11.20;99.90;;;;;;5037718;28;20057;-79
2022/10/13 02:31:23;;;;;;;21.20;14.15;;;11.20;99.90;;;;;;5003878;28;20058;-79
2022/10/13 02:33:49;;;;;;;20.73;14.32;;;11.20;99.90;;;;;;5001620;28;20448;-79
2022/10/13 02:36:15;;;;;;;18.08;11.98;;;11.20;99.90;;;;;;4987638;28;20049;-79
2022/10/13 02:38:41;;;;;;;22.13;12.27;;;11.20;99.90;;;;;;5002645;28;20132;-79
2022/10/13 02:41:07;;;;;;;22.77;12.85;;;11.20;99.90;;;;;;5003175;28;20123;-79
2022/10/13 02:43:36;;;;;;;18.63;11.95;;;11.30;99.90;;;;;;4987213;28;20065;-79
2022/10/13 02:46:04;;;;;;;23.02;12.80;;;11.30;99.90;;;;;;5018932;28;20049;-79
2022/10/13 02:48:30;;;;;;;20.15;13.23;;;11.30;99.90;;;;;;5003097;28;20434;-79
2022/10/13 02:50:56;;;;;;;23.20;12.43;;;11.40;99.90;;;;;;4986774;28;20053;-79
2022/10/13 02:53:21;;;;;;;18.45;12.45;;;11.40;99.90;;;;;;4987106;28;20480;-79
2022/10/13 02:55:47;;;;;;;19.30;12.57;;;11.40;99.90;;;;;;5019558;28;20057;-79
2022/10/13 02:58:13;;;;;;;22.10;13.38;;;11.40;99.90;;;;;;4987159;28;20049;-79
2022/10/13 03:00:39;;;;;;;22.30;13.40;;;11.40;99.90;;;;;;5003150;28;20046;-79
2022/10/13 03:03:05;;;;;;;23.73;13.98;;;11.40;99.90;;;;;;5008605;28;20076;-79
2022/10/13 03:05:31;;;;;;;19.98;12.57;;;11.50;99.90;;;;;;5019709;28;20125;-79
2022/10/13 03:07:57;;;;;;;19.40;13.30;;;11.50;99.90;;;;;;5018629;28;20054;-79
2022/10/13 03:10:22;;;;;;;19.00;12.55;;;11.50;99.90;;;;;;5019131;28;20050;-79
2022/10/13 03:12:48;;;;;;;22.48;13.65;;;11.50;99.90;;;;;;5026683;28;20391;-79
2022/10/13 03:15:14;;;;;;;23.33;14.25;;;11.50;99.90;;;;;;5010452;28;20053;-79
2022/10/13 03:17:40;;;;;;;24.75;14.45;;;11.50;99.90;;;;;;5001844;28;20053;-79
2022/10/13 03:20:06;;;;;;;19.40;13.75;;;11.60;99.90;;;;;;5002461;28;20072;-79
2022/10/13 03:22:32;;;;;;;18.65;13.25;;;11.60;99.90;;;;;;5002906;28;20041;-79
2022/10/13 03:24:58;;;;;;;20.25;12.93;;;11.60;99.90;;;;;;5018277;28;20050;-79
2022/10/13 03:27:24;;;;;;;20.35;13.27;;;11.60;99.90;;;;;;5002791;28;20096;-80
2022/10/13 03:29:50;;;;;;;20.85;13.57;;;11.60;99.90;;;;;;4985357;28;20132;-79
2022/10/13 03:32:15;;;;;;;19.23;13.38;;;11.60;99.90;;;;;;5018778;28;20119;-79
2022/10/13 03:34:41;;;;;;;21.08;13.55;;;11.60;99.90;;;;;;5002335;28;20057;-80
2022/10/13 03:37:07;;;;;;;21.55;12.75;;;11.60;99.90;;;;;;5019238;28;20081;-80
2022/10/13 03:39:33;;;;;;;19.45;13.50;;;11.60;99.90;;;;;;5018421;28;20049;-80
2022/10/13 03:41:59;;;;;;;20.00;13.48;;;11.60;99.90;;;;;;4987288;28;20498;-80
2022/10/13 03:44:24;;;;;;;21.05;13.48;;;11.60;99.90;;;;;;5002834;28;20052;-80
2022/10/13 03:46:50;;;;;;;21.00;13.55;;;11.60;99.90;;;;;;5001865;28;20487;-79
2022/10/13 03:49:17;;;;;;;23.52;14.07;;;11.60;99.90;;;;;;5018748;28;20057;-80
2022/10/13 03:51:43;;;;;;;17.30;12.35;;;11.60;99.90;;;;;;4993389;28;20049;-80
2022/10/13 03:54:12;;;;;;;20.13;12.98;;;11.70;99.90;;;;;;5010452;28;20049;-79
2022/10/13 03:56:39;;;;;;;22.67;13.20;;;11.60;99.90;;;;;;5000889;28;20077;-79
2022/10/13 03:59:05;;;;;;;20.02;12.88;;;11.60;99.90;;;;;;5025643;28;20057;-79
2022/10/13 04:01:32;;;;;;;24.10;13.93;;;11.60;99.90;;;;;;5025301;28;20057;-80
2022/10/13 04:04:01;;;;;;;21.73;14.07;;;11.60;99.90;;;;;;5001287;28;20093;-79
2022/10/13 04:06:27;;;;;;;24.05;14.65;;;11.70;99.90;;;;;;5025752;28;20046;-79
2022/10/13 04:08:53;;;;;;;18.25;13.90;;;11.70;99.90;;;;;;5009158;28;20037;-79
2022/10/13 04:11:20;;;;;;;20.35;14.23;;;11.70;99.90;;;;;;5018913;28;20119;-80
2022/10/13 04:13:46;;;;;;;21.23;13.73;;;11.70;99.90;;;;;;5016716;28;20080;-79
2022/10/13 04:16:20;;;;;;;19.67;13.48;;;11.70;99.90;;;;;;5001853;28;20089;-79
2022/10/13 04:18:52;;;;;;;17.08;11.82;;;11.70;99.90;;;;;;5041145;28;20084;-79
2022/10/13 04:21:18;;;;;;;20.55;14.68;;;11.70;99.90;;;;;;5018774;28;20071;-79
2022/10/13 04:23:43;;;;;;;22.55;14.10;;;11.70;99.90;;;;;;5017408;28;20122;-79
2022/10/13 04:26:21;;;;;;;21.88;15.40;;;11.70;99.90;;;;;;5001985;28;20050;-79
2022/10/13 04:28:48;;;;;;;19.40;14.40;;;11.70;99.90;;;;;;5024608;28;20053;-79
2022/10/13 04:31:14;;;;;;;20.23;14.20;;;11.70;99.90;;;;;;5025644;28;20061;-79
2022/10/13 04:33:40;;;;;;;24.35;15.60;;;11.80;99.90;;;;;;5018540;28;20056;-79
2022/10/13 04:36:08;;;;;;;21.83;14.40;;;11.80;99.90;;;;;;5009369;28;20049;-79
2022/10/13 04:38:33;;;;;;;20.83;15.65;;;11.80;99.90;;;;;;5001171;28;20111;-79
2022/10/13 04:41:04;;;;;;;21.60;15.27;;;11.80;99.90;;;;;;4986936;28;20041;-79
2022/10/13 04:43:31;;;;;;;22.67;15.60;;;11.80;99.90;;;;;;5022412;28;20111;-80
2022/10/13 04:46:07;;;;;;;25.85;16.23;;;11.80;99.90;;;;;;5022247;28;20049;-79
2022/10/13 04:48:33;;;;;;;;;;;11.80;99.90;;;;;;5021905;28;20046;-79
2022/10/13 04:51:05;;;;;;;19.88;14.18;;;11.90;99.90;;;;;;4988564;28;19931;-79
2022/10/13 04:53:31;;;;;;;20.98;15.75;;;11.90;99.90;;;;;;5028996;28;20430;-79
2022/10/13 04:56:04;;;;;;;21.02;15.15;;;11.90;99.90;;;;;;5021394;28;20156;-79
2022/10/13 04:58:31;;;;;;;18.27;13.82;;;11.90;99.90;;;;;;5021504;28;20050;-79
2022/10/13 05:00:57;;;;;;;21.60;15.07;;;11.90;99.90;;;;;;4988395;28;20494;-79
2022/10/13 05:03:23;;;;;;;17.58;12.73;;;11.90;99.90;;;;;;4989549;28;20052;-79
2022/10/13 05:05:49;;;;;;;18.45;12.77;;;11.80;99.90;;;;;;5020423;28;20093;-80
2022/10/13 05:08:15;;;;;;;14.38;11.02;;;11.90;99.90;;;;;;5003983;28;20079;-80
2022/10/13 05:10:41;;;;;;;15.60;10.23;;;11.80;99.90;;;;;;4988487;28;20117;-80
2022/10/13 05:13:06;;;;;;;12.13;9.07;;;11.80;99.90;;;;;;5005015;28;20053;-79
2022/10/13 05:15:32;;;;;;;13.07;8.35;;;11.80;99.90;;;;;;5005902;28;20050;-79
2022/10/13 05:17:59;;;;;;;16.20;9.38;;;11.80;99.90;;;;;;5002854;28;20116;-81
2022/10/13 05:20:25;;;;;;;16.73;9.73;;;11.80;99.90;;;;;;5021057;28;20041;-80
2022/10/13 05:22:51;;;;;;;15.68;10.35;;;11.80;99.90;;;;;;5004828;28;20816;-80
2022/10/13 05:25:17;;;;;;;14.57;10.63;;;11.80;99.90;;;;;;5007005;28;20050;-80
2022/10/13 05:27:45;;;;;;;13.98;10.52;;;11.80;99.90;;;;;;5020721;28;20049;-80
2022/10/13 05:30:11;;;;;;;16.77;11.10;;;11.80;99.90;;;;;;5021265;28;20431;-80
2022/10/13 05:32:40;;;;;;;14.52;9.82;;;11.70;99.90;;;;;;4987894;28;20068;-80
2022/10/13 05:35:06;;;;;;;14.98;10.25;;;11.80;99.90;;;;;;5005915;28;20212;-80
2022/10/13 05:37:31;;;;;;;15.60;11.60;;;11.80;99.90;;;;;;4995907;28;20058;-80
2022/10/13 05:39:57;;;;;;;19.58;11.57;;;11.70;99.90;;;;;;4988516;28;20064;-80
2022/10/13 05:42:23;;;;;;;17.67;11.77;;;11.80;99.90;;;;;;5020896;28;20053;-80
2022/10/13 05:44:48;;;;;;;18.08;12.13;;;11.80;99.90;;;;;;5004111;28;20060;-82
2022/10/13 05:47:14;;;;;;;15.75;11.32;;;11.80;99.90;;;;;;4988163;28;20049;-81
2022/10/13 05:49:40;;;;;;;18.92;12.48;;;11.80;99.90;;;;;;4988226;28;20108;-80
2022/10/13 05:52:08;;;;;;;18.25;12.98;;;11.70;99.90;;;;;;5028229;28;20484;-81
2022/10/13 05:54:40;;;;;;;22.45;14.05;;;11.70;99.90;;;;;;5020810;28;20054;-81
2022/10/13 05:57:15;;;;;;;21.52;14.10;;;12.20;99.90;;;;;;5021629;28;20054;-85
2022/10/13 05:59:46;;;;;;;20.25;14.80;;;11.80;99.90;;;;;;5003430;28;20046;-82
2022/10/13 06:02:14;;;;;;;20.90;13.57;;;11.80;99.90;;;;;;5028621;28;20046;-82
2022/10/13 06:04:46;;;;;;;21.80;14.75;;;11.80;99.90;;;;;;5019785;28;20517;-81
2022/10/13 06:07:12;;;;;;;18.25;12.82;;;11.80;99.90;;;;;;5003400;28;20384;-83
2022/10/13 06:09:40;;;;;;;25.00;15.35;;;11.80;99.90;;;;;;5003478;28;20053;-80
2022/10/13 06:12:07;;;;;;;20.77;14.77;;;11.80;99.90;;;;;;5022014;28;20045;-81
2022/10/13 06:14:33;;;;;;;21.13;14.40;;;11.80;99.90;;;;;;4987840;28;20512;-79
2022/10/13 06:16:58;;;;;;;20.80;14.35;;;11.80;99.90;;;;;;5024065;28;20077;-79
2022/10/13 06:19:24;;;;;;;24.73;15.10;;;11.80;99.90;;;;;;5003420;28;20167;-78
2022/10/13 06:21:50;;;;;;;25.10;15.10;;;11.80;99.90;;;;;;4987471;28;20042;-80
2022/10/13 06:24:16;;;;;;;24.88;16.88;;;11.80;99.90;;;;;;5020106;28;20064;-79
2022/10/13 06:26:47;;;;;;;25.50;17.23;;;11.80;99.90;;;;;;4988005;28;20059;-79
2022/10/13 06:29:13;;;;;;;24.80;15.77;;;11.90;99.90;;;;;;5003892;28;20085;-82
2022/10/13 06:31:38;;;;;;;27.33;16.45;;;11.90;99.90;;;;;;5004321;28;20108;-79
2022/10/13 06:34:04;;;;;;;27.15;17.77;;;11.90;99.90;;;;;;5004391;28;20120;-80
2022/10/13 06:36:30;;;;;;;24.00;16.45;;;11.90;99.90;;;;;;4987423;28;20121;-81
2022/10/13 06:38:56;;;;;;;23.40;15.80;;;12.00;99.90;;;;;;5014507;28;20061;-81
2022/10/13 06:41:21;;;;;;;27.95;18.85;;;12.00;99.90;;;;;;5001913;28;20402;-81
2022/10/13 06:43:47;;;;;;;26.17;18.83;;;12.00;99.90;;;;;;5005200;28;20458;-81
2022/10/13 06:46:13;;;;;;;29.98;19.73;;;12.00;99.90;;;;;;4998012;28;20064;-81
2022/10/13 06:48:39;;;;;;;26.50;19.58;;;12.10;99.90;;;;;;4986804;28;20516;-80
2022/10/13 06:51:08;;;;;;;28.80;20.52;;;12.10;99.90;;;;;;4985903;28;20042;-81
2022/10/13 06:53:34;;;;;;;29.02;20.38;;;12.20;99.90;;;;;;5002025;28;20049;-81
2022/10/13 06:56:02;;;;;;;33.65;20.52;;;12.20;99.90;;;;;;5002343;28;20119;-81
2022/10/13 06:58:28;;;;;;;31.52;20.85;;;12.20;99.90;;;;;;5027328;28;20070;-81
2022/10/13 07:00:54;;;;;;;31.38;19.80;;;12.20;99.90;;;;;;5018434;28;20038;-81
2022/10/13 07:03:20;;;;;;;27.20;19.70;;;12.30;99.90;;;;;;5002368;28;20045;-80
2022/10/13 07:05:46;;;;;;;27.88;19.90;;;12.30;99.90;;;;;;5019687;28;20045;-80
2022/10/13 07:08:12;;;;;;;35.08;22.15;;;12.30;99.90;;;;;;5001117;28;20050;-80
2022/10/13 07:10:39;;;;;;;29.15;21.35;;;12.40;99.90;;;;;;5011177;28;20487;-80
2022/10/13 07:13:05;;;;;;;31.58;21.63;;;12.40;99.90;;;;;;5018819;28;20124;-81
2022/10/13 07:15:31;;;;;;;34.50;21.10;;;12.40;99.90;;;;;;5001924;28;20145;-80
2022/10/13 07:17:56;;;;;;;35.08;22.40;;;12.50;99.90;;;;;;4985625;28;20139;-80
2022/10/13 07:20:24;;;;;;;31.23;22.45;;;12.50;99.90;;;;;;4987007;28;20052;-80
2022/10/13 07:22:53;;;;;;;30.40;21.75;;;12.50;99.90;;;;;;5002378;28;20133;-81
2022/10/13 07:25:19;;;;;;;33.15;20.42;;;12.50;99.90;;;;;;5026956;28;20548;-81
2022/10/13 07:27:45;;;;;;;27.42;19.20;;;12.60;99.90;;;;;;4986049;28;20046;-81
2022/10/13 07:30:12;;;;;;;32.70;20.65;;;12.60;99.90;;;;;;5018073;28;20072;-83
2022/10/13 07:32:40;;;;;;;28.83;19.77;;;12.60;99.90;;;;;;5002254;28;20901;-81
2022/10/13 07:35:10;;;;;;;30.50;21.02;;;12.60;99.90;;;;;;5008465;28;20130;-80
2022/10/13 07:37:37;;;;;;;31.30;20.13;;;12.60;99.90;;;;;;5026334;28;20054;-81
2022/10/13 07:40:04;;;;;;;29.58;19.65;;;12.70;99.90;;;;;;5017331;28;20537;-81
2022/10/13 07:42:30;;;;;;;30.80;19.90;;;12.70;99.90;;;;;;5001833;28;20053;-81
2022/10/13 07:44:56;;;;;;;27.17;19.92;;;12.70;99.90;;;;;;5018426;28;20132;-81
2022/10/13 07:47:22;;;;;;;27.30;19.55;;;12.80;99.90;;;;;;4985806;28;20054;-81
2022/10/13 07:49:48;;;;;;;29.25;19.23;;;12.80;99.90;;;;;;4986179;28;20560;-83
2022/10/13 07:52:13;;;;;;;30.08;18.80;;;12.80;99.90;;;;;;5002826;28;20049;-84
2022/10/13 07:54:39;;;;;;;29.55;19.60;;;12.90;99.90;;;;;;5004096;28;20546;-85
2022/10/13 07:57:05;;;;;;;28.52;18.85;;;12.90;99.90;;;;;;5001338;28;20046;-85
2022/10/13 07:59:34;;;;;;;29.60;19.65;;;13.00;99.90;;;;;;4986293;28;20053;-84
2022/10/13 08:02:01;;;;;;;25.58;17.63;;;13.00;99.90;;;;;;5009641;28;20510;-83
2022/10/13 08:04:31;;;;;;;27.63;18.88;;;13.10;99.90;;;;;;5025158;28;20133;-84
2022/10/13 08:06:57;;;;;;;26.20;17.67;;;13.10;99.90;;;;;;4999627;28;20076;-83
2022/10/13 08:09:24;;;;;;;29.00;19.70;;;13.20;99.90;;;;;;4986659;28;20042;-83
2022/10/13 08:11:50;;;;;;;28.15;18.17;;;13.30;99.90;;;;;;5000492;28;20572;-82
2022/10/13 08:14:16;;;;;;;28.00;17.67;;;13.30;99.90;;;;;;5007815;28;20069;-86
2022/10/13 08:16:44;;;;;;;23.80;16.88;;;13.30;99.90;;;;;;5002597;28;20080;-86
2022/10/13 08:19:15;;;;;;;24.40;16.67;;;13.40;99.90;;;;;;5003348;28;20046;-86
2022/10/13 08:21:41;;;;;;;24.70;17.67;;;13.40;99.90;;;;;;5018148;28;20491;-87
2022/10/13 08:24:13;;;;;;;24.98;16.88;;;13.50;99.90;;;;;;5002179;28;20053;-86
2022/10/13 08:26:39;;;;;;;27.65;17.27;;;13.50;99.90;;;;;;5042677;28;20476;-83
2022/10/13 08:29:05;;;;;;;24.45;16.55;;;13.50;99.90;;;;;;4985838;28;20118;-86
2022/10/13 08:31:31;;;;;;;23.88;15.93;;;13.60;99.90;;;;;;4988959;28;20610;-85
2022/10/13 08:33:57;;;;;;;22.02;16.00;;;13.60;99.90;;;;;;5002586;28;20092;-85
2022/10/13 08:36:23;;;;;;;22.98;15.80;;;13.70;99.90;;;;;;5003825;28;20053;-85
2022/10/13 08:38:49;;;;;;;20.38;15.32;;;13.70;99.90;;;;;;5000446;28;20439;-85
2022/10/13 08:41:22;;;;;;;20.40;14.95;;;13.80;99.90;;;;;;4986411;28;20044;-86
2022/10/13 08:43:51;;;;;;;19.45;14.52;;;13.80;99.90;;;;;;5043309;28;20141;-85
2022/10/13 08:46:26;;;;;;;19.98;14.63;;;13.90;99.90;;;;;;5018373;28;20082;-85
2022/10/13 08:48:55;;;;;;;20.60;13.93;;;13.90;99.90;;;;;;5025419;28;20402;-81
2022/10/13 08:51:21;;;;;;;22.88;14.30;;;14.00;99.90;;;;;;5001417;28;20049;-82
2022/10/13 08:53:48;;;;;;;20.02;13.50;;;14.00;99.90;;;;;;4985691;28;20045;-82
2022/10/13 08:56:23;;;;;;;18.25;12.27;;;14.00;99.90;;;;;;5023717;28;20053;-85
2022/10/13 08:58:51;;;;;;;19.05;12.18;;;14.00;99.90;;;;;;5020838;28;20045;-82
2022/10/13 09:01:32;;;;;;;21.63;13.45;;;14.00;99.90;;;;;;4981839;28;20041;-82
2022/10/13 09:04:07;;;;;;;19.15;12.27;;;14.00;99.90;;;;;;5015484;28;20049;-82
2022/10/13 09:06:38;;;;;;;20.13;12.18;;;14.00;99.90;;;;;;5005900;28;20053;-81
2022/10/13 09:09:10;;;;;;;18.35;11.77;;;14.00;99.90;;;;;;5007130;28;20060;-82
2022/10/13 09:11:41;;;;;;;17.92;12.05;;;14.00;99.90;;;;;;5023830;28;20079;-81
2022/10/13 09:14:09;;;;;;;15.45;10.32;;;14.00;99.90;;;;;;5005438;28;20053;-82
2022/10/13 09:16:42;;;;;;;19.90;11.88;;;14.00;99.90;;;;;;5017527;28;20108;-82
2022/10/13 09:19:22;;;;;;;17.00;11.80;;;14.00;99.90;;;;;;5014289;28;20065;-82
2022/10/13 09:22:24;;;;;;;18.23;12.13;;;14.10;99.90;;;;;;5006156;28;20119;-82
2022/10/13 09:25:05;;;;;;;20.13;11.93;;;14.10;99.90;;;;;;5023600;28;20046;-82
2022/10/13 09:27:55;;;;;;;18.73;12.13;;;14.10;99.90;;;;;;5010655;28;20057;-83
2022/10/13 09:30:35;;;;;;;20.25;11.90;;;14.10;99.90;;;;;;5020325;28;20506;-82
2022/10/13 09:33:07;;;;;;;16.88;11.65;;;14.10;99.90;;;;;;5029140;28;20787;-82
2022/10/13 09:35:41;;;;;;;20.23;11.82;;;14.20;99.90;;;;;;5004986;28;20092;-82
2022/10/13 09:38:14;;;;;;;18.77;12.32;;;14.20;99.90;;;;;;5003574;28;20075;-81
2022/10/13 09:40:40;;;;;;;19.80;13.70;;;14.20;99.90;;;;;;5020778;28;20396;-80
2022/10/13 09:43:42;;;;;;;19.95;12.68;;;14.20;99.90;;;;;;5005235;28;20483;-80
2022/10/13 09:46:21;;;;;;;18.80;12.73;;;14.30;99.90;;;;;;4991407;28;20061;-82
2022/10/13 09:48:54;;;;;;;18.15;12.52;;;14.40;99.90;;;;;;5012054;28;20829;-82
2022/10/13 09:51:36;;;;;;;20.05;12.75;;;14.30;99.90;;;;;;5003628;28;20056;-81
2022/10/13 09:54:02;;;;;;;18.88;11.77;;;14.40;99.90;;;;;;5012806;28;20058;-80
2022/10/13 09:56:42;;;;;;;16.52;11.65;;;14.40;99.90;;;;;;5003182;28;20491;-79
2022/10/13 09:59:30;;;;;;;16.58;11.40;;;14.50;99.90;;;;;;5019782;28;20050;-82
2022/10/13 10:01:59;;;;;;;16.45;10.70;;;14.50;99.90;;;;;;5005304;28;20426;-82
2022/10/13 10:04:37;;;;;;;15.02;9.77;;;14.50;99.90;;;;;;5027898;28;20410;-84
2022/10/13 10:07:11;;;;;;;15.32;8.73;;;14.50;99.90;;;;;;5023757;28;20041;-82
2022/10/13 10:09:43;;;;;;;12.32;8.18;;;14.50;99.90;;;;;;5003750;28;20054;-81
2022/10/13 10:12:13;;;;;;;10.98;6.22;;;14.50;99.90;;;;;;5021557;28;20111;-84
2022/10/13 10:14:38;;;;;;;9.40;5.00;;;14.50;99.90;;;;;;5026507;28;20045;-82
2022/10/13 10:17:32;;;;;;;9.82;3.90;;;14.50;99.90;;;;;;5034352;28;20084;-82
2022/10/13 10:20:13;;;;;;;9.20;3.13;;;14.50;99.90;;;;;;5017605;28;20058;-83
2022/10/13 10:22:48;;;;;;;7.07;2.38;;;14.50;99.90;;;;;;5023890;28;20130;-82
2022/10/13 10:25:33;;;;;;;6.60;2.28;;;14.50;99.90;;;;;;5007119;28;20061;-83
2022/10/13 10:28:17;;;;;;;5.07;1.92;;;14.50;99.90;;;;;;5025241;28;20053;-84
2022/10/13 10:30:50;;;;;;;5.75;2.00;;;14.50;99.90;;;;;;5007855;28;20045;-84
2022/10/13 10:33:22;;;;;;;9.13;1.98;;;14.50;99.90;;;;;;5023485;28;20057;-82
2022/10/13 10:35:57;;;;;;;5.30;2.00;;;14.60;99.90;;;;;;5006098;28;20763;-82
2022/10/13 10:38:55;;;;;;;7.38;2.47;;;14.60;99.90;;;;;;5022352;28;20470;-83
2022/10/13 10:41:42;;;;;;;5.88;2.28;;;14.70;99.90;;;;;;5018427;28;20508;-81
2022/10/13 10:44:30;;;;;;;8.07;1.90;;;14.80;99.90;;;;;;4997842;28;20052;-82
2022/10/13 10:47:01;;;;;;;8.77;1.63;;;14.90;99.90;;;;;;5005785;28;20054;-85
2022/10/13 10:49:31;;;;;;;5.97;2.05;;;15.00;99.90;;;;;;5017394;28;20045;-82
2022/10/13 10:52:00;;;;;;;7.13;1.92;;;15.00;99.90;;;;;;5016437;28;20077;-81
2022/10/13 10:54:50;;;;;;;6.32;1.60;;;15.10;99.90;;;;;;5017492;28;20072;-82
2022/10/13 10:57:23;;;;;;;6.25;2.08;;;15.20;99.90;;;;;;5014835;28;20911;-82
2022/10/13 10:59:55;;;;;;;6.47;2.17;;;15.20;99.90;;;;;;5015903;28;20107;-82
2022/10/13 11:02:33;;;;;;;6.07;1.92;;;15.30;99.90;;;;;;5011440;28;20636;-82
2022/10/13 11:05:00;;;;;;;4.07;1.90;;;15.50;99.90;;;;;;5021202;28;20064;-82
2022/10/13 11:07:28;;;;;;;4.05;1.50;;;15.50;99.90;;;;;;5016336;28;20124;-82
2022/10/13 11:09:56;;;;;;;5.00;1.45;;;15.50;99.90;;;;;;5008617;28;20060;-82
2022/10/13 11:12:21;;;;;;;6.57;1.73;;;15.50;99.90;;;;;;5015707;28;20060;-82
2022/10/13 11:14:56;;;;;;;5.50;1.83;;;15.40;99.90;;;;;;5016170;28;20046;-82
2022/10/13 11:17:31;;;;;;;8.23;1.60;;;15.20;99.90;;;;;;5001004;28;20053;-82
2022/10/13 11:19:59;;;;;;;5.82;1.80;;;15.20;99.90;;;;;;5019521;28;20252;-82
2022/10/13 11:22:29;;;;;;;4.40;1.65;;;15.20;99.90;;;;;;5018180;28;20519;-82
2022/10/13 11:25:22;;;;;;;7.10;1.80;;;15.20;99.90;;;;;;4985204;28;20081;-82
2022/10/13 11:27:48;;;;;;;6.15;1.77;;;15.20;99.90;;;;;;5025854;28;20057;-81
2022/10/13 11:30:39;;;;;;;3.78;1.50;;;15.30;99.90;;;;;;5009236;28;20096;-81
2022/10/13 11:33:31;;;;;;;7.53;2.08;;;15.40;99.90;;;;;;5015859;28;20482;-81
2022/10/13 11:35:57;;;;;;;7.32;1.75;;;15.40;99.90;;;;;;5001577;28;20396;-82
2022/10/13 11:38:32;;;;;;;6.25;1.80;;;15.40;99.90;;;;;;5000756;28;20107;-81
2022/10/13 11:41:23;;;;;;;8.13;1.88;;;15.40;99.90;;;;;;5018689;28;20058;-82
2022/10/13 11:44:15;;;;;;;6.32;1.63;;;15.40;99.90;;;;;;5026636;28;20068;-80
2022/10/13 11:47:14;;;;;;;6.53;2.15;;;15.50;99.90;;;;;;5016569;28;20613;-84
2022/10/13 11:50:13;;;;;;;7.78;2.78;;;15.50;99.90;;;;;;5018273;28;20056;-81
2022/10/13 11:52:52;;;;;;;5.10;1.85;;;15.50;99.90;;;;;;5015547;28;20464;-81
2022/10/13 11:55:42;;;;;;;5.10;1.90;;;15.50;99.90;;;;;;5001885;28;20103;-82
2022/10/13 11:58:29;;;;;;;5.82;1.88;;;15.50;99.90;;;;;;5008098;28;20407;-81
2022/10/13 12:00:56;;;;;;;5.30;2.03;;;14.80;99.90;;;;;;5001479;28;20086;-82
2022/10/13 12:03:30;;;;;;;8.25;2.00;;;15.50;99.90;;;;;;5025799;28;20049;-82
2022/10/13 12:06:02;;;;;;;9.05;2.15;;;15.60;99.90;;;;;;5025641;28;20056;-82
2022/10/13 12:08:29;;;;;;;6.82;1.90;;;15.60;99.90;;;;;;5016783;28;20037;-82
2022/10/13 12:10:57;;;;;;;5.60;1.77;;;15.60;99.90;;;;;;5019460;28;20053;-81
2022/10/13 12:13:28;;;;;;;6.70;1.70;;;15.70;99.90;;;;;;5016914;28;20041;-81
2022/10/13 12:16:01;;;;;;;6.22;2.25;;;15.80;99.90;;;;;;5026033;28;20121;-81
2022/10/13 12:18:33;;;;;;;6.15;1.80;;;15.80;99.90;;;;;;5024603;28;21921;-82
2022/10/13 12:21:12;;;;;;;4.55;1.92;;;16.00;99.90;;;;;;5022888;28;20048;-81
2022/10/13 12:23:39;;;;;;;5.93;2.10;;;15.90;99.90;;;;;;5038471;28;20164;-81
2022/10/13 12:26:05;;;;;;;6.57;1.88;;;16.10;99.90;;;;;;5034934;28;20053;-81
2022/10/13 12:28:55;;;;;;;6.50;1.80;;;16.10;99.90;;;;;;5000194;28;20045;-80
2022/10/13 12:31:24;;;;;;;5.75;1.83;;;16.10;99.90;;;;;;5017691;28;20196;-81
2022/10/13 12:34:00;;;;;;;9.20;2.20;;;16.10;99.90;;;;;;5007378;28;20049;-80
2022/10/13 12:36:29;;;;;;;5.72;1.67;;;16.10;99.90;;;;;;5024818;28;20051;-79
2022/10/13 12:39:09;;;;;;;6.78;1.73;;;16.10;99.90;;;;;;5014611;28;20419;-79
2022/10/13 12:41:38;;;;;;;8.52;1.70;;;16.20;99.90;;;;;;5036497;28;20049;-81
2022/10/13 12:44:04;;;;;;;6.07;2.08;;;16.60;99.90;;;;;;5000784;28;20084;-81
2022/10/13 12:46:41;;;;;;;3.47;1.48;;;16.80;99.90;;;;;;5007368;28;20079;-81
2022/10/13 12:49:28;;;;;;;3.15;1.40;;;16.90;99.90;;;;;;5015334;28;20495;-81